Time;durP1;ratioP1;P1;durP2;ratioP2;P2;SDS_P1;SDS_P2;PMS_P1;PMS_P2;Temp;Humidity;BMP_temperature;BMP_pressure;BME280_temperature;BME280_humidity;BME280_pressure;Samples;Min_cycle;Max_cycle;Signal;HPM_P1;HPM_P2
2022/11/10 00:01:48;;;;;;;59.47;27.23;;;7.40;99.90;;;;;;4790581;29;20214;-81
2022/11/10 00:04:15;;;;;;;56.20;26.10;;;7.50;99.90;;;;;;4789909;29;20269;-81
2022/11/10 00:06:43;;;;;;;61.43;28.00;;;7.30;99.90;;;;;;4789751;29;20215;-82
2022/11/10 00:09:10;;;;;;;58.30;26.63;;;7.30;99.90;;;;;;4806194;29;20203;-82
2022/11/10 00:11:37;;;;;;;56.10;26.17;;;7.20;99.90;;;;;;4790015;29;20203;-81
2022/11/10 00:17:05;;;;;;;58.07;26.70;;;7.30;99.90;;;;;;4790167;29;20216;-83
2022/11/10 00:19:33;;;;;;;52.20;25.10;;;7.30;99.90;;;;;;4790184;29;20271;-82
2022/11/10 00:22:02;;;;;;;56.50;26.43;;;7.20;99.90;;;;;;4805828;29;20231;-79
2022/11/10 00:24:29;;;;;;;57.07;27.10;;;7.20;99.90;;;;;;4806034;29;20213;-79
2022/11/10 00:26:56;;;;;;;58.83;27.50;;;7.30;99.90;;;;;;4789618;29;20216;-79
2022/11/10 00:29:23;;;;;;;58.90;27.77;;;7.30;99.90;;;;;;4789554;29;20213;-81
2022/11/10 00:31:50;;;;;;;61.33;28.13;;;7.30;99.90;;;;;;4789547;29;20215;-78
2022/11/10 00:34:17;;;;;;;60.80;27.93;;;7.40;99.90;;;;;;4789427;29;20203;-78
2022/11/10 00:36:43;;;;;;;57.83;26.77;;;7.40;99.90;;;;;;4789431;29;20223;-80
2022/11/10 00:39:11;;;;;;;55.97;26.77;;;7.30;99.90;;;;;;4805824;29;20225;-80
2022/11/10 00:41:38;;;;;;;55.93;26.53;;;7.40;99.90;;;;;;4789619;29;20204;-81
2022/11/10 00:44:05;;;;;;;61.60;28.10;;;7.40;99.90;;;;;;4805557;29;20658;-80
2022/11/10 00:46:31;;;;;;;56.57;27.67;;;7.30;99.90;;;;;;4805461;29;20226;-81
2022/11/10 00:48:58;;;;;;;56.83;27.47;;;7.30;99.90;;;;;;4789519;29;20207;-80
2022/11/10 00:51:27;;;;;;;58.30;27.27;;;7.40;99.90;;;;;;4789096;29;20210;-82
2022/11/10 00:53:54;;;;;;;59.53;26.80;;;7.50;99.90;;;;;;4789634;29;20206;-82
2022/11/10 00:56:22;;;;;;;60.07;27.00;;;7.40;99.90;;;;;;4805654;29;20221;-80
2022/11/10 00:58:49;;;;;;;60.47;27.90;;;7.40;99.90;;;;;;4805545;29;20608;-81
2022/11/10 01:01:19;;;;;;;57.50;26.47;;;7.40;99.90;;;;;;4789307;29;20207;-79
2022/11/10 01:03:46;;;;;;;60.10;28.07;;;7.40;99.90;;;;;;4805715;29;20199;-80
2022/11/10 01:06:15;;;;;;;63.50;27.40;;;7.50;99.90;;;;;;4789054;29;20315;-81
2022/11/10 01:08:43;;;;;;;64.93;28.27;;;7.50;99.90;;;;;;4805862;29;20199;-81
2022/11/10 01:11:12;;;;;;;55.67;26.20;;;7.50;99.90;;;;;;4789210;29;20601;-80
2022/11/10 01:13:40;;;;;;;56.70;27.10;;;7.50;99.90;;;;;;4789296;29;20238;-81
2022/11/10 01:16:12;;;;;;;60.20;27.33;;;7.50;99.90;;;;;;4789696;29;20200;-81
2022/11/10 01:18:39;;;;;;;57.83;25.67;;;7.60;99.90;;;;;;4809050;29;20206;-79
2022/11/10 01:21:08;;;;;;;54.87;25.97;;;7.60;99.90;;;;;;4792417;29;20219;-82
2022/11/10 01:23:35;;;;;;;61.10;27.33;;;7.70;99.90;;;;;;4792795;29;20203;-82
2022/11/10 01:26:09;;;;;;;57.53;27.10;;;7.60;99.90;;;;;;4792472;29;20231;-80
2022/11/10 01:28:36;;;;;;;54.53;25.63;;;7.60;99.90;;;;;;4792620;29;20191;-80
2022/11/10 01:31:06;;;;;;;55.63;26.87;;;7.60;99.90;;;;;;4792922;29;20210;-80
2022/11/10 01:33:34;;;;;;;58.60;27.10;;;7.70;99.90;;;;;;4809094;29;20688;-79
2022/11/10 01:36:01;;;;;;;53.30;25.80;;;7.80;99.90;;;;;;4792486;29;20661;-80
2022/11/10 01:38:33;;;;;;;56.00;26.70;;;7.60;99.90;;;;;;4792292;29;20208;-80
2022/11/10 01:41:01;;;;;;;57.37;25.27;;;7.60;99.90;;;;;;4792907;29;20307;-80
2022/11/10 01:43:29;;;;;;;55.53;26.23;;;7.70;99.90;;;;;;4808456;29;20646;-80
2022/11/10 01:46:07;;;;;;;52.27;25.93;;;7.60;99.90;;;;;;4800680;29;20237;-79
2022/11/10 01:48:43;;;;;;;58.47;26.47;;;7.70;99.90;;;;;;4825785;29;20214;-80
2022/11/10 01:51:26;;;;;;;57.33;26.07;;;7.70;99.90;;;;;;4810045;29;20206;-81
2022/11/10 01:53:58;;;;;;;58.17;27.50;;;7.70;99.90;;;;;;4809782;29;20213;-80
2022/11/10 01:56:28;;;;;;;55.20;25.57;;;7.80;99.90;;;;;;4810700;29;20704;-81
2022/11/10 01:58:59;;;;;;;52.87;26.27;;;7.80;99.90;;;;;;4810426;29;20206;-80
2022/11/10 02:01:26;;;;;;;53.97;25.07;;;7.90;99.90;;;;;;4809921;29;20230;-80
2022/11/10 02:04:00;;;;;;;57.73;26.10;;;7.90;99.90;;;;;;4826443;29;20297;-81
2022/11/10 02:06:30;;;;;;;53.13;24.90;;;7.90;99.90;;;;;;4794865;29;20592;-82
2022/11/10 02:08:58;;;;;;;50.63;25.27;;;7.90;99.90;;;;;;4810073;29;20254;-80
2022/11/10 02:11:26;;;;;;;54.30;25.93;;;8.00;99.90;;;;;;4826139;29;20558;-79
2022/11/10 02:13:54;;;;;;;55.60;25.67;;;8.10;99.90;;;;;;4826260;29;20203;-80
2022/11/10 02:16:22;;;;;;;53.77;25.43;;;8.10;99.90;;;;;;4824820;29;20218;-79
2022/11/10 02:18:49;;;;;;;53.60;25.10;;;8.00;99.90;;;;;;4809843;29;20214;-79
2022/11/10 02:21:18;;;;;;;55.30;25.10;;;8.10;99.90;;;;;;4825598;29;20569;-80
2022/11/10 02:23:46;;;;;;;51.77;25.10;;;8.00;99.90;;;;;;4809560;29;20297;-80
2022/11/10 02:26:18;;;;;;;56.17;27.10;;;7.90;99.90;;;;;;4824404;29;20245;-79
2022/11/10 02:28:45;;;;;;;58.17;26.50;;;8.00;99.90;;;;;;4790575;29;20238;-80
2022/11/10 02:31:12;;;;;;;55.30;24.97;;;7.90;99.90;;;;;;4791648;29;20222;-81
2022/11/10 02:33:38;;;;;;;58.43;27.00;;;7.90;99.90;;;;;;4791362;29;20221;-81
2022/11/10 02:36:06;;;;;;;53.33;26.10;;;7.90;99.90;;;;;;4807849;29;20214;-80
2022/11/10 02:38:33;;;;;;;51.00;25.73;;;8.00;99.90;;;;;;4791162;29;20208;-80
2022/11/10 02:41:00;;;;;;;58.37;24.40;;;8.00;99.90;;;;;;4792039;29;20568;-81
2022/11/10 02:43:28;;;;;;;60.23;26.90;;;8.00;99.90;;;;;;4776619;29;20210;-80
2022/11/10 02:45:57;;;;;;;53.40;25.67;;;8.00;99.90;;;;;;4807382;29;20231;-79
2022/11/10 02:48:24;;;;;;;56.87;26.33;;;8.00;99.90;;;;;;4791452;29;20203;-79
2022/11/10 02:50:51;;;;;;;53.47;25.83;;;8.00;99.90;;;;;;4791067;29;20257;-79
2022/11/10 02:53:18;;;;;;;54.57;25.67;;;8.00;99.90;;;;;;4791025;29;20334;-80
2022/11/10 02:55:46;;;;;;;56.57;26.57;;;7.90;99.90;;;;;;4807577;29;20642;-80
2022/11/10 02:58:13;;;;;;;56.20;26.07;;;7.90;99.90;;;;;;4791137;29;20210;-80
2022/11/10 03:00:40;;;;;;;54.87;25.50;;;8.00;99.90;;;;;;4807258;29;20215;-80
2022/11/10 03:03:07;;;;;;;54.57;25.77;;;8.00;99.90;;;;;;4790757;29;20235;-79
2022/11/10 03:05:34;;;;;;;50.33;24.77;;;8.10;99.90;;;;;;4790764;29;20241;-79
2022/11/10 03:08:02;;;;;;;54.53;26.13;;;8.10;99.90;;;;;;4805663;29;20611;-79
2022/11/10 03:10:30;;;;;;;55.47;25.83;;;8.10;99.90;;;;;;4806906;29;20199;-79
2022/11/10 03:13:03;;;;;;;56.17;25.30;;;8.10;99.90;;;;;;4790956;29;20580;-79
2022/11/10 03:15:33;;;;;;;53.83;25.63;;;8.10;99.90;;;;;;4807113;29;20597;-79
2022/11/10 03:18:03;;;;;;;54.57;25.53;;;8.10;99.90;;;;;;4790940;29;20204;-79
2022/11/10 03:20:31;;;;;;;52.40;24.67;;;8.10;99.90;;;;;;4805967;29;20298;-79
2022/11/10 03:23:03;;;;;;;50.13;24.53;;;8.20;99.90;;;;;;4791220;29;20215;-79
2022/11/10 03:25:30;;;;;;;51.50;25.33;;;8.30;99.90;;;;;;4790871;29;20306;-79
2022/11/10 03:27:58;;;;;;;52.03;24.73;;;8.30;99.90;;;;;;4791239;29;20227;-79
2022/11/10 03:30:25;;;;;;;53.47;25.00;;;8.30;99.90;;;;;;4790354;29;20209;-80
2022/11/10 03:32:52;;;;;;;54.33;24.57;;;8.30;99.90;;;;;;4790313;29;20726;-80
2022/11/10 03:35:19;;;;;;;53.43;25.07;;;8.40;99.90;;;;;;4805811;29;20559;-79
2022/11/10 03:37:46;;;;;;;51.57;25.20;;;8.40;99.90;;;;;;4806951;29;20282;-80
2022/11/10 03:40:13;;;;;;;52.50;24.57;;;8.40;99.90;;;;;;4790828;29;20214;-82
2022/11/10 03:42:44;;;;;;;50.00;24.33;;;8.40;99.90;;;;;;4790832;29;20211;-80
2022/11/10 03:45:13;;;;;;;50.80;23.87;;;8.50;99.90;;;;;;4790664;29;20231;-82
2022/11/10 03:47:40;;;;;;;60.43;26.93;;;8.30;99.90;;;;;;4806848;29;20200;-82
2022/11/10 03:50:07;;;;;;;53.53;25.10;;;8.40;99.90;;;;;;4790844;29;20290;-81
2022/11/10 03:52:37;;;;;;;54.67;24.93;;;8.30;99.90;;;;;;4790318;29;20645;-82
2022/11/10 03:55:04;;;;;;;55.53;25.63;;;8.30;99.90;;;;;;4790585;29;20204;-83
2022/11/10 03:57:31;;;;;;;52.57;25.63;;;8.30;99.90;;;;;;4806975;29;20646;-81
2022/11/10 03:59:58;;;;;;;53.73;24.80;;;8.30;99.90;;;;;;4790516;29;20203;-79
2022/11/10 04:02:25;;;;;;;53.57;25.20;;;8.30;99.90;;;;;;4807031;29;20230;-82
2022/11/10 04:10:24;;;;;;;55.00;24.90;;;8.40;99.90;;;;;;4790590;29;20203;-81
2022/11/10 04:15:43;;;;;;;57.77;25.93;;;8.40;99.90;;;;;;4806614;29;20196;-80
2022/11/10 04:18:25;;;;;;;52.70;24.80;;;8.40;99.90;;;;;;4790493;29;20204;-80
2022/11/10 04:20:58;;;;;;;50.97;24.80;;;8.40;99.90;;;;;;4790295;29;20195;-80
2022/11/10 04:23:34;;;;;;;56.87;25.40;;;8.40;99.90;;;;;;4806468;29;20195;-79
2022/11/10 04:26:28;;;;;;;51.43;24.37;;;8.50;99.90;;;;;;4806954;29;20237;-79
2022/11/10 04:28:57;;;;;;;57.73;24.70;;;8.50;99.90;;;;;;4806253;29;20231;-80
2022/11/10 04:31:26;;;;;;;53.43;25.70;;;8.50;99.90;;;;;;4789488;29;20204;-79
2022/11/10 04:33:54;;;;;;;57.07;25.37;;;8.50;99.90;;;;;;4789513;29;20568;-80
2022/11/10 04:36:27;;;;;;;56.77;25.73;;;8.50;99.90;;;;;;4789566;29;20240;-80
2022/11/10 04:38:55;;;;;;;51.10;24.80;;;8.50;99.90;;;;;;4805979;29;20203;-80
2022/11/10 04:41:27;;;;;;;57.43;25.50;;;8.60;99.90;;;;;;4790264;29;20717;-81
2022/11/10 04:43:54;;;;;;;54.70;25.07;;;8.60;99.90;;;;;;4789447;29;20214;-81
2022/11/10 04:46:35;;;;;;;55.10;25.50;;;8.70;99.90;;;;;;4789371;29;20235;-80
2022/11/10 04:49:04;;;;;;;54.53;25.40;;;8.70;99.90;;;;;;4789509;29;20199;-81
2022/11/10 04:51:34;;;;;;;50.97;24.80;;;8.70;99.90;;;;;;4790765;29;20208;-80
2022/11/10 04:54:02;;;;;;;54.23;25.07;;;8.70;99.90;;;;;;4793015;29;20207;-79
2022/11/10 04:56:29;;;;;;;63.27;25.87;;;8.70;99.90;;;;;;4809076;29;20192;-81
2022/11/10 04:58:57;;;;;;;57.33;25.37;;;8.70;99.90;;;;;;4809634;29;20219;-81
2022/11/10 05:01:26;;;;;;;58.40;26.03;;;8.80;99.90;;;;;;4807864;29;20246;-80
2022/11/10 05:03:54;;;;;;;57.67;24.97;;;8.80;99.90;;;;;;4809171;29;20248;-80
2022/11/10 05:06:21;;;;;;;54.40;25.63;;;8.80;99.90;;;;;;4792734;29;20263;-80
2022/11/10 05:08:48;;;;;;;57.20;25.77;;;8.90;99.90;;;;;;4807734;29;20214;-79
2022/11/10 05:11:16;;;;;;;59.47;26.33;;;8.90;99.90;;;;;;4792755;29;20204;-79
2022/11/10 05:13:44;;;;;;;56.53;25.03;;;8.90;99.90;;;;;;4808990;29;20294;-79
2022/11/10 05:16:11;;;;;;;59.33;26.60;;;8.90;99.90;;;;;;4808923;29;20192;-79
2022/11/10 05:18:39;;;;;;;61.77;24.90;;;8.90;99.90;;;;;;4808816;29;20210;-80
2022/11/10 05:21:06;;;;;;;59.30;26.10;;;8.90;99.90;;;;;;4792626;29;20219;-79
2022/11/10 05:23:40;;;;;;;60.30;27.10;;;8.90;99.90;;;;;;4792458;29;20662;-78
2022/11/10 05:26:16;;;;;;;60.80;26.67;;;8.90;99.90;;;;;;4808755;29;20230;-81
2022/11/10 05:28:44;;;;;;;63.73;27.20;;;8.90;99.90;;;;;;4792994;29;20567;-81
2022/11/10 05:31:12;;;;;;;61.83;27.13;;;8.90;99.90;;;;;;4807609;29;20215;-80
2022/11/10 05:33:39;;;;;;;65.03;28.23;;;8.80;99.90;;;;;;4792934;29;20214;-79
2022/11/10 05:36:07;;;;;;;67.07;27.90;;;8.80;99.90;;;;;;4808679;29;20283;-80
2022/11/10 05:38:35;;;;;;;64.00;28.03;;;8.90;99.90;;;;;;4792341;29;20208;-78
2022/11/10 05:41:09;;;;;;;65.63;28.13;;;8.80;99.90;;;;;;4792348;29;20199;-80
2022/11/10 05:43:36;;;;;;;65.63;27.67;;;8.90;99.90;;;;;;4792473;29;20199;-82
2022/11/10 05:46:03;;;;;;;73.20;29.73;;;8.90;99.90;;;;;;4792128;29;20254;-82
2022/11/10 05:48:30;;;;;;;69.37;28.23;;;8.90;99.90;;;;;;4808311;29;20246;-78
2022/11/10 05:50:57;;;;;;;70.53;29.10;;;8.90;99.90;;;;;;4808154;29;20683;-77
2022/11/10 05:53:24;;;;;;;72.37;29.67;;;8.80;99.90;;;;;;4791502;29;20243;-77
2022/11/10 05:55:56;;;;;;;74.90;30.60;;;8.90;99.90;;;;;;4791814;29;20688;-76
2022/11/10 05:58:23;;;;;;;71.50;29.70;;;8.90;99.90;;;;;;4791980;29;20249;-76
2022/11/10 06:00:50;;;;;;;78.77;29.67;;;8.90;99.90;;;;;;4792162;29;20209;-76
2022/11/10 06:03:18;;;;;;;72.90;30.13;;;8.90;99.90;;;;;;4790764;29;20297;-77
2022/11/10 06:05:46;;;;;;;77.90;31.10;;;8.90;99.90;;;;;;4807922;29;20306;-73
2022/11/10 06:08:13;;;;;;;84.33;31.67;;;8.80;99.90;;;;;;4791609;29;20207;-76
2022/11/10 06:10:40;;;;;;;74.90;30.10;;;8.90;99.90;;;;;;4808296;29;20207;-78
2022/11/10 06:13:09;;;;;;;78.03;30.43;;;8.90;99.90;;;;;;4792114;29;20222;-75
2022/11/10 06:15:36;;;;;;;80.97;31.50;;;8.90;99.90;;;;;;4791521;29;20267;-80
2022/11/10 06:18:03;;;;;;;81.70;31.17;;;8.90;99.90;;;;;;4791532;29;20253;-76
2022/11/10 06:20:30;;;;;;;80.47;31.10;;;8.90;99.90;;;;;;4807908;29;20565;-77
2022/11/10 06:23:01;;;;;;;96.67;32.90;;;8.90;99.90;;;;;;4791245;29;20214;-74
2022/11/10 06:25:29;;;;;;;83.00;31.37;;;9.00;99.90;;;;;;4807675;29;20322;-77
2022/11/10 06:27:56;;;;;;;86.47;29.97;;;9.00;99.90;;;;;;4791550;29;20210;-78
2022/11/10 06:30:24;;;;;;;82.53;30.97;;;8.90;99.90;;;;;;4806502;29;20218;-79
2022/11/10 06:32:51;;;;;;;80.87;31.37;;;9.00;99.90;;;;;;4791455;29;20210;-77
2022/11/10 06:35:19;;;;;;;80.17;30.20;;;9.00;99.90;;;;;;4791094;29;20206;-79
2022/11/10 06:38:04;;;;;;;77.90;31.07;;;9.00;99.90;;;;;;4791148;29;20239;-82
2022/11/10 06:40:32;;;;;;;84.23;31.23;;;9.00;99.90;;;;;;4791395;29;20208;-78
2022/11/10 06:42:59;;;;;;;86.27;32.10;;;9.10;99.90;;;;;;4807455;29;20206;-78
2022/11/10 06:45:29;;;;;;;85.47;31.50;;;9.10;99.90;;;;;;4806953;29;20206;-74
2022/11/10 06:48:12;;;;;;;84.43;30.37;;;9.00;99.90;;;;;;4807266;29;20203;-76
2022/11/10 06:50:39;;;;;;;88.90;31.17;;;9.10;99.90;;;;;;4791168;29;20234;-76
2022/11/10 06:53:06;;;;;;;85.17;31.13;;;9.10;99.90;;;;;;4790750;29;20243;-81
2022/11/10 06:55:33;;;;;;;82.37;30.27;;;9.00;99.90;;;;;;4791149;29;20207;-81
2022/11/10 06:58:00;;;;;;;89.57;31.63;;;9.10;99.90;;;;;;4791119;29;20205;-75
2022/11/10 07:00:28;;;;;;;82.27;30.93;;;9.10;99.90;;;;;;4790770;29;20564;-79
2022/11/10 07:03:15;;;;;;;80.67;29.93;;;9.20;99.90;;;;;;4790836;29;20200;-81
2022/11/10 07:05:42;;;;;;;88.10;31.20;;;9.20;99.90;;;;;;4790759;29;20203;-80
2022/11/10 07:08:15;;;;;;;85.63;31.73;;;9.20;99.90;;;;;;4791050;29;20214;-81
2022/11/10 07:10:43;;;;;;;87.03;32.37;;;9.20;99.90;;;;;;4790841;29;20211;-82
2022/11/10 07:13:11;;;;;;;83.10;31.40;;;9.30;99.90;;;;;;4790993;29;20203;-80
2022/11/10 07:15:37;;;;;;;79.27;30.10;;;9.30;99.90;;;;;;4790600;29;20211;-78
2022/11/10 07:18:04;;;;;;;90.37;31.73;;;9.30;99.90;;;;;;4806811;29;20207;-72
2022/11/10 07:20:32;;;;;;;86.90;32.30;;;9.20;99.90;;;;;;4806829;29;20207;-74
2022/11/10 07:23:01;;;;;;;82.17;31.00;;;9.30;99.90;;;;;;4790258;29;20215;-75
2022/11/10 07:25:30;;;;;;;95.87;33.37;;;9.30;99.90;;;;;;4805427;29;20293;-72
2022/11/10 07:27:59;;;;;;;88.00;31.77;;;9.30;99.90;;;;;;4790367;29;20256;-77
2022/11/10 07:30:28;;;;;;;84.43;30.70;;;9.40;99.90;;;;;;4806917;29;20231;-72
2022/11/10 07:33:10;;;;;;;83.63;30.77;;;9.40;99.90;;;;;;4790660;29;20207;-77
2022/11/10 07:35:37;;;;;;;87.17;29.93;;;9.30;99.90;;;;;;4790385;29;20256;-75
2022/11/10 07:38:07;;;;;;;86.20;30.60;;;9.40;99.90;;;;;;4790453;29;20658;-72
2022/11/10 07:40:35;;;;;;;87.17;31.23;;;9.40;99.90;;;;;;4790027;29;20207;-72
2022/11/10 07:43:02;;;;;;;88.03;31.63;;;9.40;99.90;;;;;;4790883;29;20271;-75
2022/11/10 07:45:30;;;;;;;93.07;31.83;;;9.40;99.90;;;;;;4790072;29;20302;-76
2022/11/10 07:48:01;;;;;;;84.67;30.77;;;9.40;99.90;;;;;;4805286;29;20219;-73
2022/11/10 07:50:29;;;;;;;82.13;29.73;;;9.50;99.90;;;;;;4790015;29;20616;-79
2022/11/10 07:53:10;;;;;;;89.53;30.93;;;9.50;99.90;;;;;;4805771;29;20312;-80
2022/11/10 07:55:39;;;;;;;87.93;30.27;;;9.50;99.90;;;;;;4789781;29;20203;-79
2022/11/10 07:58:07;;;;;;;78.57;29.57;;;9.50;99.90;;;;;;4806183;29;20209;-78
2022/11/10 08:00:34;;;;;;;81.70;29.83;;;9.50;99.90;;;;;;4790615;29;20239;-80
2022/11/10 08:03:16;;;;;;;87.60;31.13;;;9.60;99.90;;;;;;4805371;29;20211;-80
2022/11/10 08:05:43;;;;;;;78.40;29.13;;;9.60;99.90;;;;;;4790191;29;20546;-83
2022/11/10 08:08:11;;;;;;;84.47;29.53;;;9.60;99.90;;;;;;4790220;29;20654;-81
2022/11/10 08:10:39;;;;;;;73.77;28.03;;;9.60;99.90;;;;;;4790188;29;20635;-80
2022/11/10 08:13:08;;;;;;;78.73;28.87;;;9.70;99.90;;;;;;4806613;29;20195;-76
2022/11/10 08:15:36;;;;;;;75.87;29.13;;;9.70;99.90;;;;;;4806014;29;20203;-80
2022/11/10 08:18:05;;;;;;;81.20;28.37;;;9.70;99.90;;;;;;4790319;29;20731;-82
2022/11/10 08:20:33;;;;;;;79.27;29.00;;;9.80;99.90;;;;;;4790071;29;20230;-79
2022/11/10 08:23:05;;;;;;;83.30;28.37;;;9.80;99.90;;;;;;4789650;29;20203;-74
2022/11/10 08:25:34;;;;;;;71.93;28.13;;;9.70;99.90;;;;;;4805139;29;20221;-75
2022/11/10 08:28:03;;;;;;;79.83;28.83;;;9.80;99.90;;;;;;4789493;29;20228;-74
2022/11/10 08:30:31;;;;;;;71.87;28.60;;;9.70;99.90;;;;;;4789634;29;20290;-75
2022/11/10 08:33:00;;;;;;;75.87;27.10;;;9.80;99.90;;;;;;4789710;29;20260;-78
2022/11/10 08:35:29;;;;;;;71.03;27.90;;;9.80;99.90;;;;;;4789601;29;20223;-74
2022/11/10 08:37:56;;;;;;;79.50;26.73;;;9.80;99.90;;;;;;4789800;29;20306;-77
2022/11/10 08:40:26;;;;;;;74.87;27.83;;;9.80;99.90;;;;;;4806112;29;20196;-78
2022/11/10 08:42:58;;;;;;;76.00;27.77;;;9.90;99.90;;;;;;4789798;29;20230;-80
2022/11/10 08:45:26;;;;;;;70.67;27.03;;;9.90;99.90;;;;;;4789539;29;20204;-76
2022/11/10 08:48:09;;;;;;;65.70;25.33;;;9.90;99.90;;;;;;4789199;29;20242;-79
2022/11/10 08:50:36;;;;;;;66.43;25.70;;;10.00;99.90;;;;;;4804258;29;20260;-78
2022/11/10 08:53:06;;;;;;;66.53;26.40;;;9.90;99.90;;;;;;4789230;29;20638;-79
2022/11/10 08:55:33;;;;;;;67.07;25.63;;;10.00;99.90;;;;;;4789468;29;20729;-76
2022/11/10 08:58:02;;;;;;;66.90;25.53;;;10.00;99.90;;;;;;4790740;29;20228;-76
2022/11/10 09:00:31;;;;;;;64.83;25.60;;;10.00;99.90;;;;;;4789809;29;20212;-76
2022/11/10 09:03:17;;;;;;;60.80;24.37;;;10.00;99.90;;;;;;4789896;29;20244;-76
2022/11/10 09:05:45;;;;;;;66.20;24.90;;;10.00;99.90;;;;;;4789227;29;20203;-74
2022/11/10 09:08:13;;;;;;;60.07;23.97;;;10.00;99.90;;;;;;4789337;29;20315;-75
2022/11/10 09:10:43;;;;;;;69.80;25.43;;;10.10;99.90;;;;;;4774625;29;20230;-76
2022/11/10 09:13:11;;;;;;;61.10;24.57;;;10.10;99.90;;;;;;4790028;29;20219;-78
2022/11/10 09:15:41;;;;;;;61.23;23.93;;;10.10;99.90;;;;;;4805410;29;20200;-77
2022/11/10 09:18:10;;;;;;;59.93;24.43;;;10.10;99.90;;;;;;4789678;29;20207;-77
2022/11/10 09:20:38;;;;;;;62.67;24.70;;;10.10;99.90;;;;;;4806104;29;20665;-77
2022/11/10 09:23:05;;;;;;;67.73;25.00;;;10.10;99.90;;;;;;4789716;29;20264;-78
2022/11/10 09:25:33;;;;;;;58.60;24.60;;;10.20;99.90;;;;;;4788915;29;20211;-78
2022/11/10 09:28:00;;;;;;;61.10;24.63;;;10.20;99.90;;;;;;4788956;29;20315;-79
2022/11/10 09:30:27;;;;;;;52.27;22.67;;;10.20;99.90;;;;;;4789571;29;20223;-73
2022/11/10 09:32:59;;;;;;;55.23;22.47;;;10.30;99.90;;;;;;4789371;29;20383;-74
2022/11/10 09:35:26;;;;;;;51.93;22.83;;;10.30;99.90;;;;;;4805246;29;20226;-74
2022/11/10 09:37:53;;;;;;;56.83;22.60;;;10.20;99.90;;;;;;4791061;29;20216;-77
2022/11/10 09:40:27;;;;;;;52.90;22.43;;;10.30;99.90;;;;;;4792157;29;20204;-74
2022/11/10 09:42:56;;;;;;;55.97;23.37;;;10.30;99.90;;;;;;4792371;29;20225;-79
2022/11/10 09:45:28;;;;;;;54.47;22.77;;;10.30;99.90;;;;;;4807562;29;20196;-73
2022/11/10 09:48:05;;;;;;;54.23;23.23;;;10.40;99.90;;;;;;4792110;29;20322;-74
2022/11/10 09:50:37;;;;;;;50.43;22.37;;;10.30;99.90;;;;;;4807043;29;20210;-74
2022/11/10 09:53:21;;;;;;;53.10;23.37;;;10.40;99.90;;;;;;4791667;29;20794;-77
2022/11/10 09:55:52;;;;;;;53.33;22.67;;;10.40;99.90;;;;;;4791881;29;20207;-74
2022/11/10 09:58:23;;;;;;;50.20;22.73;;;10.40;99.90;;;;;;4792095;29;20210;-75
2022/11/10 10:01:04;;;;;;;50.00;22.83;;;10.40;99.90;;;;;;4791997;29;20207;-75
2022/11/10 10:03:36;;;;;;;51.27;23.90;;;10.40;99.90;;;;;;4808283;29;20299;-85
2022/11/10 10:06:11;;;;;;;51.80;23.87;;;10.50;99.90;;;;;;4792143;29;20210;-83
2022/11/10 10:09:14;;;;;;;54.33;23.97;;;10.50;99.90;;;;;;4808171;29;20223;-81
2022/11/10 10:11:50;;;;;;;49.23;23.50;;;10.50;99.90;;;;;;4808427;29;20188;-83
2022/11/10 10:15:10;;;;;;;51.43;23.47;;;10.60;99.90;;;;;;4808594;29;20199;-80
2022/11/10 10:17:42;;;;;;;45.17;22.73;;;10.70;99.90;;;;;;4734570;30;20737;-79
2022/11/10 10:20:18;;;;;;;49.67;22.67;;;10.70;99.90;;;;;;4719927;30;20745;-82
2022/11/10 10:23:10;;;;;;;48.37;23.27;;;10.70;99.90;;;;;;4734458;30;20305;-85
2022/11/10 10:25:39;;;;;;;44.93;22.23;;;10.80;99.90;;;;;;4734568;30;20202;-80
2022/11/10 10:28:21;;;;;;;47.30;23.10;;;10.70;99.90;;;;;;4734638;30;20574;-81
2022/11/10 10:30:56;;;;;;;48.23;21.93;;;10.80;99.90;;;;;;4734470;30;20612;-84
2022/11/10 10:33:23;;;;;;;45.80;22.33;;;10.80;99.90;;;;;;4734737;30;20571;-89
2022/11/10 10:35:50;;;;;;;46.13;22.50;;;10.80;99.90;;;;;;4734975;30;20218;-78
2022/11/10 10:38:29;;;;;;;46.47;23.17;;;10.80;99.90;;;;;;4719847;30;20708;-85
2022/11/10 10:41:02;;;;;;;47.67;22.77;;;10.80;99.90;;;;;;4719893;30;20206;-81
2022/11/10 10:43:29;;;;;;;44.40;21.40;;;10.90;99.90;;;;;;4720069;30;20633;-84
2022/11/10 10:46:10;;;;;;;42.80;21.63;;;11.00;99.90;;;;;;4734927;30;20206;-88
2022/11/10 10:48:37;;;;;;;37.87;20.33;;;11.00;99.90;;;;;;4733998;30;20238;-84
2022/11/10 10:51:04;;;;;;;45.83;21.87;;;11.00;99.90;;;;;;4734634;30;20221;-83
2022/11/10 10:53:32;;;;;;;43.57;21.73;;;11.00;99.90;;;;;;4754729;29;20597;-79
2022/11/10 10:56:14;;;;;;;44.30;21.20;;;11.00;99.90;;;;;;4791255;29;20718;-82
2022/11/10 10:59:01;;;;;;;40.73;20.50;;;11.00;99.90;;;;;;4791373;29;20200;-79
2022/11/10 11:01:32;;;;;;;45.10;21.03;;;11.00;99.90;;;;;;4791234;29;20196;-86
2022/11/10 11:04:04;;;;;;;41.77;20.70;;;11.00;99.90;;;;;;4807494;29;20542;-79
2022/11/10 11:06:33;;;;;;;40.23;19.90;;;11.00;99.90;;;;;;4807400;29;20681;-81
2022/11/10 11:09:07;;;;;;;38.57;19.67;;;11.10;99.90;;;;;;4791196;29;20223;-77
2022/11/10 11:11:36;;;;;;;39.50;19.80;;;11.10;99.90;;;;;;4806096;29;20657;-81
2022/11/10 11:14:12;;;;;;;33.17;18.57;;;11.10;99.90;;;;;;4790919;29;20291;-81
2022/11/10 11:16:56;;;;;;;37.47;19.67;;;11.20;99.90;;;;;;4807224;29;20215;-79
2022/11/10 11:19:36;;;;;;;37.67;19.23;;;11.20;99.90;;;;;;4791251;29;20243;-82
2022/11/10 11:22:21;;;;;;;37.70;19.53;;;11.30;99.90;;;;;;4790772;29;20566;-76
2022/11/10 11:25:06;;;;;;;40.50;19.33;;;11.40;99.90;;;;;;4790718;29;20239;-86
2022/11/10 11:28:02;;;;;;;36.97;18.80;;;11.40;99.90;;;;;;4805809;29;20223;-77
2022/11/10 11:31:03;;;;;;;33.47;18.50;;;11.40;99.90;;;;;;4806918;29;20638;-76
2022/11/10 11:33:30;;;;;;;32.80;18.13;;;11.40;99.90;;;;;;4790772;29;20733;-81
2022/11/10 11:36:10;;;;;;;32.40;17.73;;;11.40;99.90;;;;;;4791129;29;20243;-80
2022/11/10 11:39:19;;;;;;;34.13;17.83;;;11.40;99.90;;;;;;4806685;29;20206;-79
2022/11/10 11:42:03;;;;;;;33.30;17.67;;;11.50;99.90;;;;;;4733292;30;20597;-77
2022/11/10 11:44:57;;;;;;;32.10;16.63;;;11.50;99.90;;;;;;4733510;30;20700;-82
2022/11/10 11:47:52;;;;;;;32.40;16.87;;;11.70;99.90;;;;;;4718641;30;20256;-79
2022/11/10 11:50:38;;;;;;;30.57;16.63;;;11.70;99.90;;;;;;4733566;30;20527;-86
2022/11/10 11:53:13;;;;;;;29.57;16.43;;;11.90;99.90;;;;;;4718153;30;20585;-81
2022/11/10 11:55:58;;;;;;;29.00;15.70;;;11.80;99.90;;;;;;4718539;30;20680;-79
2022/11/10 11:58:51;;;;;;;31.63;14.83;;;11.80;99.90;;;;;;4718269;30;20213;-80
2022/11/10 12:01:33;;;;;;;29.67;15.10;;;11.70;99.90;;;;;;4717517;30;20227;-84
2022/11/10 12:04:18;;;;;;;24.87;13.60;;;11.70;99.90;;;;;;4718801;30;20202;-80
2022/11/10 12:07:12;;;;;;;27.83;13.30;;;11.70;99.90;;;;;;4718463;30;20210;-79
2022/11/10 12:09:49;;;;;;;25.07;13.67;;;11.80;99.90;;;;;;4718619;30;20270;-79
2022/11/10 12:12:35;;;;;;;21.90;12.63;;;11.80;99.90;;;;;;4715062;30;20210;-80
2022/11/10 12:15:21;;;;;;;21.63;13.03;;;11.80;99.90;;;;;;4732554;30;20221;-79
2022/11/10 12:17:48;;;;;;;23.40;13.33;;;11.90;99.90;;;;;;4731562;29;20303;-77
2022/11/10 12:20:41;;;;;;;21.87;12.40;;;12.00;99.90;;;;;;4805969;29;20291;-77
2022/11/10 12:23:27;;;;;;;23.43;13.20;;;12.10;99.90;;;;;;4805681;29;20192;-79
2022/11/10 12:26:37;;;;;;;22.40;12.87;;;12.10;99.90;;;;;;4805614;29;20206;-79
2022/11/10 12:29:14;;;;;;;20.30;11.83;;;12.10;99.90;;;;;;4711972;30;20236;-81
2022/11/10 12:31:42;;;;;;;22.87;11.70;;;12.10;99.90;;;;;;4732469;30;20217;-79
2022/11/10 12:34:37;;;;;;;22.43;12.50;;;12.10;99.90;;;;;;4718651;30;20301;-82
2022/11/10 12:37:06;;;;;;;29.30;12.43;;;12.00;99.90;;;;;;4732549;30;20217;-84
2022/11/10 12:39:53;;;;;;;22.23;12.27;;;12.00;99.90;;;;;;4732932;30;20225;-87
2022/11/10 12:42:27;;;;;;;21.30;12.07;;;12.00;99.90;;;;;;4718537;30;20213;-90
2022/11/10 12:44:59;;;;;;;21.63;11.53;;;12.00;99.90;;;;;;4718248;30;20311;-91
2022/11/10 12:47:35;;;;;;;21.37;11.60;;;12.00;99.90;;;;;;4718674;30;20234;-89
2022/11/10 12:50:34;;;;;;;23.70;11.97;;;12.00;99.90;;;;;;4734616;30;20748;-90
2022/11/10 12:53:17;;;;;;;23.83;14.25;;;12.00;99.90;;;;;;4679964;30;20954;-83
2022/11/10 12:55:56;;;;;;;21.07;11.10;;;12.00;99.90;;;;;;4666860;30;20239;-80
2022/11/10 12:58:25;;;;;;;20.27;10.83;;;12.00;99.90;;;;;;4680389;30;20208;-80
2022/11/10 13:01:11;;;;;;;21.30;11.93;;;12.00;99.90;;;;;;4667056;30;20266;-80
2022/11/10 13:03:56;;;;;;;21.63;12.30;;;11.90;99.90;;;;;;4680432;30;20212;-78
2022/11/10 13:06:30;;;;;;;25.43;12.00;;;11.90;99.90;;;;;;4709008;30;20801;-78
2022/11/10 13:08:58;;;;;;;20.40;11.10;;;11.80;99.90;;;;;;4732197;30;20226;-79